EGCC/MAN METAR and TAF weather

Enter ICAO airport designator
Station Type Date Time Source
EGCC METAR 2019/04/26 04:20 UTC NOAA

EGCC 260420Z AUTO VRB03KT 9999 NCD 07/05 Q1004


Station Type Date Time Source
EGCC Decoded METAR 2019/04/26 04:20 UTC NOAA

Manchester Airport, United Kingdom (EGCC) 53-21N 002-17W 0M
Apr 26, 2019 - 12:20 AM EDT / 2019.04.26 0420 UTC
Wind: Variable at 3 MPH (3 KT):0
Visibility: greater than 7 mile(s):0
Temperature: 44 F (7 C)
Dew Point: 41 F (5 C)
Relative Humidity: 87%
Pressure (altimeter): 29.65 in. Hg (1004 hPa)
ob: EGCC 260420Z AUTO VRB03KT 9999 NCD 07/05 Q1004
cycle: 4

Station Type Date Time Source
EGCC TAF 2019/04/25 18:09 UTC NOAA

TAF EGCC 251656Z 2518/2624 16008KT 9999 SCT035
TEMPO 2518/2521 7000 SHRA PROB30
TEMPO 2518/2519 19018G28KT 4000 +SHRA TSGS BKN014 BKN030CB
BECMG 2611/2614 22010KT 8000 -RA
TEMPO 2611/2616 22015G25KT RA BKN014
BECMG 2614/2617 9999 NSW
BECMG 2618/2621 16012KT
TEMPO 2618/2624 19018G28KT 6000 RA BKN014

Example: see airport list